Time;durP1;ratioP1;P1;durP2;ratioP2;P2;SDS_P1;SDS_P2;PMS_P1;PMS_P2;Temp;Humidity;BMP_temperature;BMP_pressure;BME280_temperature;BME280_humidity;BME280_pressure;Samples;Min_cycle;Max_cycle;Signal;HPM_P1;HPM_P2
2022/03/25 00:01:07;;;;;;;;;;;6.10;99.90;;;;;;5056481;28;19944;-68
2022/03/25 00:03:33;;;;;;;;;;;6.20;99.90;;;;;;5055862;28;19905;-68
2022/03/25 00:05:59;;;;;;;;;;;6.10;99.90;;;;;;5055568;28;20287;-68
2022/03/25 00:08:26;;;;;;;;;;;6.10;99.90;;;;;;5056028;28;19905;-69
2022/03/25 00:10:51;;;;;;;;;;;6.10;99.90;;;;;;5055724;28;19944;-69
2022/03/25 00:13:17;;;;;;;;;;;6.00;99.90;;;;;;5055686;28;19959;-69
2022/03/25 00:15:42;;;;;;;;;;;6.00;99.90;;;;;;5055670;28;19911;-69
2022/03/25 00:18:08;;;;;;;;;;;5.90;99.90;;;;;;5055598;28;19936;-68
2022/03/25 00:20:34;;;;;;;;;;;5.90;99.90;;;;;;5056102;28;19951;-68
2022/03/25 00:22:59;;;;;;;;;;;5.80;99.90;;;;;;5055507;28;19905;-68
2022/03/25 00:25:25;;;;;;;;;;;5.70;99.90;;;;;;5055425;28;20071;-68
2022/03/25 00:27:50;;;;;;;;;;;5.60;99.90;;;;;;5055323;28;20341;-68
2022/03/25 00:30:16;;;;;;;;;;;5.60;99.90;;;;;;5055346;28;20381;-68
2022/03/25 00:32:42;;;;;;;;;;;5.50;99.90;;;;;;5055342;28;19909;-69
2022/03/25 00:35:07;;;;;;;;;;;5.50;99.90;;;;;;5055541;28;20258;-69
2022/03/25 00:37:33;;;;;;;;;;;5.60;99.90;;;;;;5055233;28;20262;-68
2022/03/25 00:39:58;;;;;;;;;;;5.60;99.90;;;;;;5055447;28;19911;-68
2022/03/25 00:42:25;;;;;;;;;;;5.60;99.90;;;;;;5054974;28;19912;-68
2022/03/25 00:44:50;;;;;;;;;;;5.50;99.90;;;;;;5055352;28;19955;-68
2022/03/25 00:47:16;;;;;;;;;;;5.40;99.90;;;;;;5054912;28;19989;-68
2022/03/25 00:49:42;;;;;;;;;;;5.50;99.90;;;;;;5055256;28;19942;-68
2022/03/25 00:52:08;;;;;;;;;;;5.40;99.90;;;;;;5054899;28;19912;-68
2022/03/25 00:54:34;;;;;;;;;;;5.40;99.90;;;;;;5055088;28;20358;-68
2022/03/25 00:56:59;;;;;;;;;;;5.30;99.90;;;;;;5054824;28;19991;-68
2022/03/25 00:59:25;;;;;;;;;;;5.30;99.90;;;;;;5054799;28;19904;-68
2022/03/25 01:01:50;;;;;;;;;;;5.20;99.90;;;;;;5054731;28;19904;-68
2022/03/25 01:04:16;;;;;;;;;;;5.20;99.90;;;;;;5055249;28;20349;-69
2022/03/25 01:06:42;;;;;;;;;;;5.20;99.90;;;;;;5054421;28;19923;-68
2022/03/25 01:09:08;;;;;;;;;;;5.20;99.90;;;;;;5054611;28;19905;-69
2022/03/25 01:11:35;;;;;;;;;;;5.30;99.90;;;;;;5054842;28;19905;-68
2022/03/25 01:14:01;;;;;;;;;;;5.20;99.90;;;;;;5054531;28;19940;-69
2022/03/25 01:16:27;;;;;;;;;;;5.20;99.90;;;;;;5054455;28;19909;-69
2022/03/25 01:18:52;;;;;;;;;;;5.20;99.90;;;;;;5054425;28;19905;-69
2022/03/25 01:21:19;;;;;;;;;;;5.10;99.90;;;;;;5054673;28;19962;-69
2022/03/25 01:23:45;;;;;;;;;;;5.10;99.90;;;;;;5054728;28;19940;-69
2022/03/25 01:26:11;;;;;;;;;;;5.00;99.90;;;;;;5054510;28;19909;-68
2022/03/25 01:28:37;;;;;;;;;;;5.00;99.90;;;;;;5054578;28;19904;-68
2022/03/25 01:31:03;;;;;;;;;;;5.00;99.90;;;;;;5054514;28;20258;-68
2022/03/25 01:33:30;;;;;;;;;;;4.90;99.90;;;;;;5036032;28;20274;-68
2022/03/25 01:35:56;;;;;;;;;;;4.90;99.90;;;;;;5054422;28;19996;-68
2022/03/25 01:38:22;;;;;;;;;;;4.80;99.90;;;;;;5054091;28;19995;-69
2022/03/25 01:40:47;;;;;;;;;;;4.90;99.90;;;;;;5054342;28;19944;-69
2022/03/25 01:43:13;;;;;;;;;;;4.90;99.90;;;;;;5054005;28;20377;-68
2022/03/25 01:45:39;;;;;;;;;;;4.90;99.90;;;;;;5054189;28;20270;-69
2022/03/25 01:48:11;;;;;;;;;;;4.80;99.90;;;;;;5053921;28;19978;-69
2022/03/25 01:50:41;;;;;;;;;;;4.80;99.90;;;;;;5053899;28;19947;-69
2022/03/25 01:53:17;;;;;;;;;;;4.80;99.90;;;;;;5053401;28;20369;-68
2022/03/25 01:55:51;;;;;;;;;;;4.70;99.90;;;;;;5053903;28;19912;-68
2022/03/25 01:58:17;;;;;;;;;;;4.80;99.90;;;;;;5053787;28;20012;-68
2022/03/25 02:00:43;;;;;;;;;;;4.70;99.90;;;;;;5054056;28;19904;-68
2022/03/25 02:03:08;;;;;;;;;;;4.60;99.90;;;;;;5053760;28;20422;-69
2022/03/25 02:05:35;;;;;;;;;;;4.60;99.90;;;;;;5053308;28;19913;-69
2022/03/25 02:08:01;;;;;;;;;;;4.50;99.90;;;;;;5054195;28;19923;-68
2022/03/25 02:10:26;;;;;;;;;;;4.50;99.90;;;;;;5053930;28;19908;-68
2022/03/25 02:12:52;;;;;;;;;;;4.60;99.90;;;;;;5054205;28;20345;-68
2022/03/25 02:15:17;;;;;;;;;;;4.60;99.90;;;;;;5053839;28;20365;-69
2022/03/25 02:17:43;;;;;;;;;;;4.50;99.90;;;;;;5053836;28;19999;-68
2022/03/25 02:20:09;;;;;;;;;;;4.40;99.90;;;;;;5053530;28;19905;-68
2022/03/25 02:22:35;;;;;;;;;;;4.40;99.90;;;;;;5053834;28;19904;-69
2022/03/25 02:25:06;;;;;;;;;;;4.40;99.90;;;;;;5053545;28;19905;-68
2022/03/25 02:27:32;;;;;;;;;;;4.50;99.90;;;;;;5053695;28;19912;-68
2022/03/25 02:29:58;;;;;;;;;;;4.40;99.90;;;;;;5053503;28;19905;-68
2022/03/25 02:32:23;;;;;;;;;;;4.40;99.90;;;;;;5035560;28;19912;-68
2022/03/25 02:34:48;;;;;;;;;;;4.30;99.90;;;;;;5035554;28;19905;-69
2022/03/25 02:37:14;;;;;;;;;;;4.40;99.90;;;;;;5053362;28;19905;-69
2022/03/25 02:39:40;;;;;;;;;;;4.40;99.90;;;;;;5053636;28;19912;-70
2022/03/25 02:42:05;;;;;;;;;;;4.50;99.90;;;;;;5053353;28;19970;-68
2022/03/25 02:44:31;;;;;;;;;;;4.40;99.90;;;;;;5053339;28;20361;-69
2022/03/25 02:46:56;;;;;;;;;;;4.40;99.90;;;;;;5053498;28;19912;-68
2022/03/25 02:49:22;;;;;;;;;;;4.40;99.90;;;;;;5053275;28;19905;-69
2022/03/25 02:51:47;;;;;;;;;;;4.40;99.90;;;;;;5053821;28;20353;-68
2022/03/25 02:54:13;;;;;;;;;;;4.40;99.90;;;;;;5053226;28;19904;-68
2022/03/25 02:56:38;;;;;;;;;;;4.40;99.90;;;;;;5053112;28;19909;-68
2022/03/25 02:59:04;;;;;;;;;;;4.30;99.90;;;;;;5053439;28;19955;-67
2022/03/25 03:01:30;;;;;;;;;;;4.30;99.90;;;;;;5053185;28;20341;-69
2022/03/25 03:03:55;;;;;;;;;;;4.20;99.90;;;;;;5053426;28;19905;-69
2022/03/25 03:06:21;;;;;;;;;;;4.20;99.90;;;;;;5056068;28;20450;-69
2022/03/25 03:08:46;;;;;;;;;;;4.10;99.90;;;;;;5056945;28;19908;-68
2022/03/25 03:11:13;;;;;;;;;;;4.10;99.90;;;;;;5057388;28;19904;-69
2022/03/25 03:13:39;;;;;;;;;;;4.10;99.90;;;;;;5056798;28;20285;-68
2022/03/25 03:16:04;;;;;;;;;;;4.00;99.90;;;;;;5057126;28;19912;-69
2022/03/25 03:18:30;;;;;;;;;;;4.00;99.90;;;;;;5038886;28;19973;-68
2022/03/25 03:20:56;;;;;;;;;;;4.00;99.90;;;;;;5056967;28;20008;-69
2022/03/25 03:23:21;;;;;;;;;;;4.00;99.90;;;;;;5056909;28;19911;-68
2022/03/25 03:25:47;;;;;;;;;;;3.90;99.90;;;;;;5056520;28;19905;-68
2022/03/25 03:28:13;;;;;;;;;;;4.00;99.90;;;;;;5056817;28;19995;-68
2022/03/25 03:30:38;;;;;;;;;;;3.90;99.90;;;;;;5056545;28;19959;-68
2022/03/25 03:33:08;;;;;;;;;;;3.90;99.90;;;;;;5056500;28;19909;-68
2022/03/25 03:35:36;;;;;;;;;;;3.90;99.90;;;;;;5056424;28;19905;-68
2022/03/25 03:38:03;;;;;;;;;;;3.90;99.90;;;;;;5056361;28;19904;-69
2022/03/25 03:40:29;;;;;;;;;;;3.80;99.90;;;;;;5056332;28;19905;-68
2022/03/25 03:42:54;;;;;;;;;;;3.80;99.90;;;;;;5056269;28;19912;-69
2022/03/25 03:45:20;;;;;;;;;;;3.80;99.90;;;;;;5056520;28;20367;-68
2022/03/25 03:47:46;;;;;;;;;;;3.70;99.90;;;;;;5056096;28;20000;-68
2022/03/25 03:50:14;;;;;;;;;;;3.70;99.90;;;;;;5056706;28;19947;-69
2022/03/25 03:52:40;;;;;;;;;;;3.70;99.90;;;;;;5056120;28;19904;-70
2022/03/25 03:55:07;;;;;;;;;;;3.70;99.90;;;;;;5055999;28;20246;-68
2022/03/25 03:57:33;;;;;;;;;;;3.60;99.90;;;;;;5056585;28;19923;-69
2022/03/25 03:59:59;;;;;;;;;;;3.60;99.90;;;;;;5056280;28;20357;-68
2022/03/25 04:02:24;;;;;;;;;;;3.50;99.90;;;;;;5055941;28;19905;-68
2022/03/25 04:04:50;;;;;;;;;;;3.50;99.90;;;;;;5043565;28;19962;-68
2022/03/25 04:07:16;;;;;;;;;;;3.50;99.90;;;;;;5075823;28;20333;-68
2022/03/25 04:09:41;;;;;;;;;;;3.40;99.90;;;;;;5075834;28;19991;-68
2022/03/25 04:12:09;;;;;;;;;;;3.40;99.90;;;;;;5076091;28;19914;-68
2022/03/25 04:14:35;;;;;;;;;;;3.40;99.90;;;;;;5075763;28;19959;-68
2022/03/25 04:17:01;;;;;;;;;;;3.40;99.90;;;;;;5075506;28;19909;-68
2022/03/25 04:19:26;;;;;;;;;;;3.40;99.90;;;;;;5075601;28;19932;-69
2022/03/25 04:21:52;;;;;;;;;;;3.50;99.90;;;;;;5075875;28;19905;-68
2022/03/25 04:24:17;;;;;;;;;;;3.50;99.90;;;;;;5075552;28;19908;-68
2022/03/25 04:26:43;;;;;;;;;;;3.50;99.90;;;;;;5075419;28;19915;-68
2022/03/25 04:29:08;;;;;;;;;;;3.50;99.90;;;;;;5075745;28;19904;-70
2022/03/25 04:31:34;;;;;;;;;;;3.50;99.90;;;;;;5075316;28;19904;-68
2022/03/25 04:33:59;;;;;;;;;;;3.40;99.90;;;;;;5075559;28;19904;-69
2022/03/25 04:36:25;;;;;;;;;;;3.40;99.90;;;;;;5075540;28;19911;-68
2022/03/25 04:38:50;;;;;;;;;;;3.40;99.90;;;;;;5075238;28;19905;-68
2022/03/25 04:41:16;;;;;;;;;;;3.30;99.90;;;;;;5075154;28;19966;-69
2022/03/25 04:43:42;;;;;;;;;;;3.30;99.90;;;;;;5075663;28;19904;-68
2022/03/25 04:46:08;;;;;;;;;;;3.40;99.90;;;;;;5074996;28;19930;-68
2022/03/25 04:48:34;;;;;;;;;;;3.40;99.90;;;;;;5075619;28;19911;-69
2022/03/25 04:51:00;;;;;;;;;;;3.40;99.90;;;;;;5075343;28;20260;-69
2022/03/25 04:53:26;;;;;;;;;;;3.40;99.90;;;;;;5074999;28;19904;-69
2022/03/25 04:55:52;;;;;;;;;;;3.30;99.90;;;;;;5074832;28;19905;-70
2022/03/25 04:58:17;;;;;;;;;;;3.30;99.90;;;;;;5075134;28;19912;-68
2022/03/25 05:00:43;;;;;;;;;;;3.20;99.90;;;;;;5074801;28;20381;-68
2022/03/25 05:03:08;;;;;;;;;;;3.20;99.90;;;;;;5074718;28;20369;-68
2022/03/25 05:05:34;;;;;;;;;;;3.20;99.90;;;;;;5063922;28;19952;-67
2022/03/25 05:08:00;;;;;;;;;;;3.20;99.90;;;;;;5054885;28;20060;-69
2022/03/25 05:10:25;;;;;;;;;;;3.10;99.90;;;;;;5054643;28;20272;-68
2022/03/25 05:12:51;;;;;;;;;;;3.10;99.90;;;;;;5054857;28;19904;-68
2022/03/25 05:15:17;;;;;;;;;;;3.10;99.90;;;;;;5054534;28;20296;-68
2022/03/25 05:17:46;;;;;;;;;;;3.10;99.90;;;;;;5036635;28;19912;-68
2022/03/25 05:20:13;;;;;;;;;;;3.00;99.90;;;;;;5054737;28;19905;-68
2022/03/25 05:22:38;;;;;;;;;;;3.00;99.90;;;;;;5054351;28;19951;-69
2022/03/25 05:25:07;;;;;;;;;;;3.00;99.90;;;;;;5054644;28;19993;-68
2022/03/25 05:27:42;;;;;;;;;;;3.10;99.90;;;;;;5053495;28;19926;-68
2022/03/25 05:30:08;;;;;;;;;;;3.10;99.90;;;;;;5054269;28;20360;-68
2022/03/25 05:32:34;;;;;;;;;;;3.10;99.90;;;;;;5054186;28;19950;-68
2022/03/25 05:34:59;;;;;;;;;;;3.00;99.90;;;;;;5054738;28;19912;-67
2022/03/25 05:37:25;;;;;;;;;;;3.00;99.90;;;;;;5054429;28;19905;-68
2022/03/25 05:39:50;;;;;;;;;;;3.00;99.90;;;;;;5054650;28;19912;-68
2022/03/25 05:42:16;;;;;;;;;;;3.00;99.90;;;;;;5054036;28;19937;-69
2022/03/25 05:44:41;;;;;;;;;;;3.00;99.90;;;;;;5036149;28;20366;-68
2022/03/25 05:47:07;;;;;;;;;;;3.00;99.90;;;;;;5054207;28;20046;-68
2022/03/25 05:49:34;;;;;;;;;;;3.00;99.90;;;;;;5053916;28;20038;-68
2022/03/25 05:51:59;;;;;;;;;;;2.90;99.90;;;;;;5054205;28;19912;-70
2022/03/25 05:54:25;;;;;;;;;;;2.90;99.90;;;;;;5053835;28;19905;-68
2022/03/25 05:56:50;;;;;;;;;;;2.90;99.90;;;;;;5053726;28;19905;-67
2022/03/25 05:59:16;;;;;;;;;;;2.90;99.90;;;;;;5054064;28;19908;-68
2022/03/25 06:01:42;;;;;;;;;;;2.90;99.90;;;;;;5053781;28;19905;-69
2022/03/25 06:04:07;;;;;;;;;;;2.90;99.90;;;;;;5054041;28;19905;-68
2022/03/25 06:06:33;;;;;;;;;;;2.90;99.90;;;;;;5053220;28;20425;-68
2022/03/25 06:08:58;;;;;;;;;;;3.00;99.90;;;;;;5053667;28;19905;-68
2022/03/25 06:11:24;;;;;;;;;;;3.10;99.90;;;;;;5053943;28;19999;-68
2022/03/25 06:13:50;;;;;;;;;;;3.10;99.90;;;;;;5053633;28;19905;-68
2022/03/25 06:16:17;;;;;;;;;;;3.20;99.90;;;;;;5053596;28;19905;-68
2022/03/25 06:18:42;;;;;;;;;;;3.30;99.90;;;;;;5053829;28;19911;-68
2022/03/25 06:21:08;;;;;;;;;;;3.30;99.90;;;;;;5053537;28;19909;-68
2022/03/25 06:23:33;;;;;;;;;;;3.30;99.90;;;;;;5054069;28;20353;-68
2022/03/25 06:25:59;;;;;;;;;;;3.40;99.90;;;;;;5053441;28;19967;-68
2022/03/25 06:28:25;;;;;;;;;;;3.50;99.90;;;;;;5053516;28;19904;-68
2022/03/25 06:30:51;;;;;;;;;;;3.60;99.90;;;;;;5053478;28;19909;-68
2022/03/25 06:33:16;;;;;;;;;;;3.70;99.90;;;;;;5053740;28;20365;-68
2022/03/25 06:35:44;;;;;;;;;;;3.80;99.90;;;;;;5053401;28;20410;-70
2022/03/25 06:38:10;;;;;;;;;;;3.90;99.90;;;;;;5053688;28;19905;-68
2022/03/25 06:40:35;;;;;;;;;;;4.00;99.90;;;;;;5057426;28;20391;-68
2022/03/25 06:43:01;;;;;;;;;;;4.10;99.90;;;;;;5057715;28;19999;-67
2022/03/25 06:45:27;;;;;;;;;;;4.20;99.90;;;;;;5057276;28;19931;-70
2022/03/25 06:47:53;;;;;;;;;;;4.30;99.90;;;;;;5057243;28;19974;-68
2022/03/25 06:50:19;;;;;;;;;;;4.40;99.90;;;;;;5057538;28;19905;-69
2022/03/25 06:52:45;;;;;;;;;;;4.50;99.90;;;;;;5057219;28;20382;-68
2022/03/25 06:55:11;;;;;;;;;;;4.60;99.90;;;;;;5057128;28;19947;-69
2022/03/25 06:57:38;;;;;;;;;;;4.80;99.90;;;;;;5057190;28;19915;-68
2022/03/25 07:00:04;;;;;;;;;;;5.00;99.90;;;;;;5057164;28;20273;-68
2022/03/25 07:02:30;;;;;;;;;;;5.20;99.90;;;;;;5057113;28;19904;-69
2022/03/25 07:04:56;;;;;;;;;;;5.40;99.90;;;;;;5057040;28;19959;-68
2022/03/25 07:07:25;;;;;;;;;;;5.70;99.90;;;;;;5056927;28;19912;-68
2022/03/25 07:09:51;;;;;;;;;;;5.90;99.90;;;;;;5057209;28;19905;-68
2022/03/25 07:12:18;;;;;;;;;;;6.10;99.90;;;;;;5056865;28;19915;-68
2022/03/25 07:14:43;;;;;;;;;;;6.30;99.90;;;;;;5056871;28;19905;-69
2022/03/25 07:17:09;;;;;;;;;;;6.40;99.90;;;;;;5056797;28;19912;-69
2022/03/25 07:19:34;;;;;;;;;;;6.50;99.90;;;;;;5056706;28;19904;-68
2022/03/25 07:22:00;;;;;;;;;;;6.60;99.90;;;;;;5057000;28;19912;-68
2022/03/25 07:24:25;;;;;;;;;;;6.90;99.90;;;;;;5056662;28;19905;-69
2022/03/25 07:26:51;;;;;;;;;;;7.10;99.90;;;;;;5056550;28;19909;-68
2022/03/25 07:29:16;;;;;;;;;;;7.30;99.90;;;;;;5056849;28;19909;-68
2022/03/25 07:31:42;;;;;;;;;;;7.40;99.90;;;;;;5056763;28;19987;-68
2022/03/25 07:34:07;;;;;;;;;;;7.60;99.90;;;;;;5056469;28;19905;-68
2022/03/25 07:36:33;;;;;;;;;;;7.70;99.90;;;;;;5056718;28;19912;-68
2022/03/25 07:38:59;;;;;;;;;;;8.00;99.90;;;;;;5038478;28;20357;-69
2022/03/25 07:41:24;;;;;;;;;;;8.10;99.90;;;;;;5056355;28;19905;-69
2022/03/25 07:43:53;;;;;;;;;;;8.20;99.90;;;;;;5056302;28;19905;-70
2022/03/25 07:46:18;;;;;;;;;;;8.40;99.90;;;;;;5056724;28;19908;-69
2022/03/25 07:48:44;;;;;;;;;;;8.70;99.90;;;;;;5056451;28;20346;-69
2022/03/25 07:51:10;;;;;;;;;;;9.00;99.90;;;;;;5055279;28;19905;-68
2022/03/25 07:53:35;;;;;;;;;;;9.30;99.90;;;;;;5056115;28;19912;-69
2022/03/25 07:56:01;;;;;;;;;;;10.20;99.90;;;;;;5055967;28;19904;-70
2022/03/25 07:58:26;;;;;;;;;;;14.00;99.90;;;;;;5055628;28;20022;-69
2022/03/25 08:00:52;;;;;;;;;;;17.40;99.90;;;;;;5055097;28;19927;-70
2022/03/25 08:03:18;;;;;;;;;;;19.70;97.10;;;;;;5038009;28;19997;-72
2022/03/25 08:05:45;;;;;;;;;;;21.40;91.90;;;;;;5055829;28;19919;-70
2022/03/25 08:08:11;;;;;;;;;;;22.60;84.50;;;;;;5055737;28;19913;-71
2022/03/25 08:10:39;;;;;;;;;;;23.70;76.40;;;;;;5056103;28;20007;-70
2022/03/25 08:13:05;;;;;;;;;;;24.30;72.20;;;;;;5056028;28;19912;-72
2022/03/25 08:15:32;;;;;;;42.60;31.05;;;25.00;69.10;;;;;;5055490;28;20121;-70
2022/03/25 08:18:10;;;;;;;39.97;29.17;;;25.70;66.10;;;;;;5055180;28;20033;-71
2022/03/25 08:20:41;;;;;;;44.95;29.05;;;26.40;63.50;;;;;;5037169;28;20532;-70
2022/03/25 08:23:13;;;;;;;37.38;29.10;;;27.00;61.50;;;;;;5055386;28;20478;-70
2022/03/25 08:28:25;;;;;;;38.15;31.05;;;27.80;57.30;;;;;;5055326;28;20036;-71
2022/03/25 08:30:51;;;;;;;41.65;31.73;;;28.30;55.20;;;;;;5054966;28;20031;-70
2022/03/25 08:33:17;;;;;;;33.60;28.30;;;28.70;54.30;;;;;;5054876;28;20103;-71
2022/03/25 08:35:44;;;;;;;35.25;28.90;;;29.10;53.10;;;;;;5054878;28;20075;-70
2022/03/25 08:38:11;;;;;;;35.80;28.10;;;29.70;51.50;;;;;;5054842;28;20096;-70
2022/03/25 08:40:38;;;;;;;34.28;27.42;;;30.20;50.80;;;;;;5054729;28;20033;-71
2022/03/25 08:43:05;;;;;;;38.75;27.98;;;30.60;50.10;;;;;;5054754;28;20021;-70
2022/03/25 08:45:32;;;;;;;32.55;27.95;;;31.10;49.10;;;;;;5036821;28;20124;-70
2022/03/25 08:47:58;;;;;;;37.13;28.83;;;31.40;47.50;;;;;;5054398;28;20116;-71
2022/03/25 08:50:24;;;;;;;32.80;26.92;;;31.60;47.60;;;;;;5054513;28;20470;-71
2022/03/25 08:52:51;;;;;;;31.85;26.52;;;31.80;46.20;;;;;;5054571;28;20131;-70
2022/03/25 08:55:19;;;;;;;39.33;29.00;;;32.40;45.90;;;;;;5054412;28;20028;-71
2022/03/25 08:57:45;;;;;;;36.60;27.77;;;33.00;44.50;;;;;;5054483;28;20100;-70
2022/03/25 09:00:14;;;;;;;34.17;26.70;;;33.40;43.70;;;;;;5054379;28;20108;-70
2022/03/25 09:02:43;;;;;;;35.50;27.13;;;33.50;43.60;;;;;;5054824;28;20021;-70
2022/03/25 09:05:09;;;;;;;35.25;27.77;;;33.80;43.20;;;;;;5054322;28;20037;-70
2022/03/25 09:07:36;;;;;;;31.20;26.55;;;34.00;42.00;;;;;;5054624;28;20025;-71
2022/03/25 09:10:06;;;;;;;29.45;26.00;;;34.20;41.20;;;;;;5054262;28;20499;-70
2022/03/25 09:12:35;;;;;;;32.13;26.98;;;34.50;41.20;;;;;;5054452;28;20021;-72
2022/03/25 09:15:02;;;;;;;33.90;28.67;;;34.70;40.60;;;;;;5054362;28;20048;-70
2022/03/25 09:17:28;;;;;;;33.00;27.08;;;34.80;39.70;;;;;;5053943;28;20107;-72
2022/03/25 09:19:54;;;;;;;34.50;28.23;;;34.90;39.90;;;;;;5054048;28;20170;-74
2022/03/25 09:22:20;;;;;;;30.25;26.67;;;35.40;39.20;;;;;;5053952;28;20017;-72
2022/03/25 09:24:46;;;;;;;35.80;28.15;;;35.70;38.90;;;;;;5054150;28;20036;-73
2022/03/25 09:27:12;;;;;;;31.63;27.55;;;36.10;38.00;;;;;;5053804;28;20393;-71
2022/03/25 09:29:37;;;;;;;30.55;26.13;;;35.90;38.10;;;;;;5053862;28;20032;-71
2022/03/25 09:32:04;;;;;;;33.00;27.17;;;36.00;38.10;;;;;;5035956;28;20028;-71
2022/03/25 09:37:14;;;;;;;32.85;25.70;;;36.10;37.30;;;;;;5054080;28;20028;-71
2022/03/25 09:39:39;;;;;;;30.95;26.15;;;36.40;36.40;;;;;;5053626;28;20025;-71
2022/03/25 09:42:06;;;;;;;32.03;26.35;;;36.40;37.30;;;;;;5053582;28;20060;-71
2022/03/25 09:44:33;;;;;;;31.50;27.08;;;36.90;35.70;;;;;;5053569;28;20025;-70
2022/03/25 09:47:00;;;;;;;29.27;25.98;;;36.80;35.30;;;;;;5053495;28;20397;-71
2022/03/25 09:49:25;;;;;;;29.52;24.80;;;36.40;35.30;;;;;;5053503;28;20029;-71
2022/03/25 09:51:51;;;;;;;31.95;26.45;;;36.70;35.70;;;;;;5053812;28;20100;-70
2022/03/25 09:54:17;;;;;;;31.08;26.60;;;37.60;35.50;;;;;;5053445;28;20050;-71
2022/03/25 09:56:43;;;;;;;29.75;25.02;;;37.40;34.30;;;;;;5053370;28;20092;-72
2022/03/25 09:59:14;;;;;;;32.92;27.02;;;37.20;34.30;;;;;;5053331;28;20029;-72
2022/03/25 10:01:40;;;;;;;31.50;26.83;;;37.10;34.10;;;;;;5053379;28;20025;-71
2022/03/25 10:04:07;;;;;;;31.90;26.88;;;37.10;33.90;;;;;;5053280;28;20470;-74
2022/03/25 10:06:45;;;;;;;28.80;25.00;;;37.00;34.20;;;;;;5052808;28;20122;-71
2022/03/25 10:09:21;;;;;;;30.92;26.38;;;37.20;33.90;;;;;;5053574;28;20025;-71
2022/03/25 10:11:47;;;;;;;28.77;25.08;;;37.10;34.10;;;;;;5053269;28;20031;-71
2022/03/25 10:14:29;;;;;;;32.30;26.77;;;37.50;34.40;;;;;;5052753;28;20071;-71
2022/03/25 10:16:55;;;;;;;32.55;26.40;;;37.30;33.50;;;;;;5053417;28;20102;-72
2022/03/25 10:19:24;;;;;;;31.17;25.95;;;36.80;33.90;;;;;;5053674;28;20021;-73
2022/03/25 10:21:53;;;;;;;29.40;25.17;;;36.80;33.50;;;;;;5053127;28;20048;-71
2022/03/25 10:24:34;;;;;;;;;;;36.90;33.70;;;;;;5053760;28;20106;-71
2022/03/25 10:27:06;;;;;;;31.00;25.52;;;36.50;33.30;;;;;;5053309;28;19948;-72
2022/03/25 10:29:31;;;;;;;31.35;26.30;;;36.90;34.10;;;;;;5053288;28;20017;-73
2022/03/25 10:32:04;;;;;;;31.55;25.08;;;36.70;33.50;;;;;;5053259;28;20095;-71
2022/03/25 10:34:30;;;;;;;30.23;24.65;;;36.90;33.30;;;;;;5053008;28;20021;-72
2022/03/25 10:37:05;;;;;;;31.63;24.83;;;37.10;33.10;;;;;;5052940;28;20021;-72
2022/03/25 10:39:32;;;;;;;27.83;24.05;;;37.10;33.10;;;;;;5052866;28;20048;-73
2022/03/25 10:42:03;;;;;;;30.23;24.38;;;37.10;33.60;;;;;;5053150;28;20392;-72
2022/03/25 10:44:36;;;;;;;31.42;24.42;;;37.40;32.90;;;;;;5052853;28;20029;-71
2022/03/25 10:47:21;;;;;;;30.55;25.55;;;37.70;33.20;;;;;;5052838;28;20485;-73
2022/03/25 10:49:48;;;;;;;30.00;23.60;;;38.20;32.70;;;;;;5052936;28;20017;-70
2022/03/25 10:52:30;;;;;;;28.65;24.23;;;37.60;32.50;;;;;;5052771;28;20100;-71
2022/03/25 10:55:21;;;;;;;33.55;24.27;;;37.00;32.40;;;;;;5053162;28;20043;-71
2022/03/25 10:58:00;;;;;;;32.58;24.40;;;37.00;32.80;;;;;;5053350;28;20111;-71
2022/03/25 11:00:27;;;;;;;37.22;25.13;;;37.00;32.90;;;;;;5053065;28;20025;-72
2022/03/25 11:02:53;;;;;;;27.77;24.15;;;37.20;33.00;;;;;;5052752;28;20436;-71
2022/03/25 11:05:19;;;;;;;33.67;25.05;;;37.00;33.60;;;;;;5052499;28;20409;-72
2022/03/25 11:07:47;;;;;;;33.92;24.88;;;37.40;32.50;;;;;;5052593;28;20021;-71
2022/03/25 11:10:17;;;;;;;29.90;24.20;;;36.70;33.10;;;;;;5052670;28;20023;-71
2022/03/25 11:12:45;;;;;;;29.52;23.73;;;36.30;33.30;;;;;;5053215;28;20143;-71
2022/03/25 11:15:19;;;;;;;;;;;36.70;33.80;;;;;;5053047;28;20028;-73
2022/03/25 11:17:46;;;;;;;30.95;24.25;;;36.30;33.80;;;;;;5052955;28;19911;-71
2022/03/25 11:20:14;;;;;;;28.50;24.42;;;35.90;34.20;;;;;;5052849;28;20017;-72
2022/03/25 11:23:06;;;;;;;33.42;24.98;;;35.80;34.00;;;;;;5052546;28;20021;-72
2022/03/25 11:25:36;;;;;;;28.40;23.30;;;36.20;34.60;;;;;;5053623;28;20017;-71
2022/03/25 11:28:08;;;;;;;28.42;24.02;;;36.20;34.00;;;;;;5056289;28;20078;-71
2022/03/25 11:30:35;;;;;;;30.20;23.80;;;36.00;33.80;;;;;;5056373;28;20489;-70
2022/03/25 11:33:04;;;;;;;30.73;24.00;;;36.00;33.40;;;;;;5056320;28;20036;-71
2022/03/25 11:35:32;;;;;;;27.23;22.50;;;35.40;34.30;;;;;;5056534;28;20073;-70
2022/03/25 11:38:10;;;;;;;28.67;23.58;;;35.30;34.40;;;;;;5055988;28;20079;-71
2022/03/25 11:40:46;;;;;;;32.20;25.30;;;34.80;34.70;;;;;;5038098;28;20056;-73
2022/03/25 11:43:30;;;;;;;36.75;24.80;;;33.80;35.70;;;;;;5056450;28;20044;-70
2022/03/25 11:45:58;;;;;;;31.75;24.88;;;30.70;37.60;;;;;;5056157;28;20036;-72
2022/03/25 11:48:24;;;;;;;33.20;22.70;;;27.00;41.50;;;;;;5055754;28;20474;-70
2022/03/25 11:50:50;;;;;;;35.10;22.50;;;25.40;42.90;;;;;;5055763;28;20079;-73
2022/03/25 11:53:16;;;;;;;37.15;24.73;;;24.40;44.50;;;;;;5055969;28;20013;-71
2022/03/25 11:56:09;;;;;;;36.92;23.50;;;23.90;45.50;;;;;;5055613;28;20036;-69
2022/03/25 11:58:57;;;;;;;31.98;22.08;;;23.50;46.70;;;;;;5055888;28;20049;-72
2022/03/25 12:01:24;;;;;;;37.78;22.70;;;23.30;46.70;;;;;;5055848;28;20029;-70
2022/03/25 12:03:52;;;;;;;34.75;21.92;;;23.00;46.10;;;;;;5055476;28;20017;-72
2022/03/25 12:06:18;;;;;;;33.53;21.77;;;22.70;45.70;;;;;;5055051;28;20049;-70
2022/03/25 12:09:03;;;;;;;32.35;21.23;;;22.60;48.50;;;;;;5037498;28;20021;-70
2022/03/25 12:11:58;;;;;;;37.22;21.30;;;22.70;48.70;;;;;;5055932;28;20024;-70
2022/03/25 12:14:47;;;;;;;28.88;19.65;;;22.60;47.80;;;;;;5055271;28;20017;-71
2022/03/25 12:17:24;;;;;;;29.77;18.52;;;22.40;47.20;;;;;;5054219;28;20091;-71
2022/03/25 12:19:51;;;;;;;31.23;19.60;;;22.30;47.00;;;;;;5055232;28;20036;-71
2022/03/25 12:22:20;;;;;;;31.63;18.63;;;22.60;47.10;;;;;;5055400;28;20112;-73
2022/03/25 12:24:54;;;;;;;29.15;19.00;;;22.60;47.50;;;;;;5037275;28;20390;-72
2022/03/25 12:27:21;;;;;;;31.55;18.92;;;22.50;46.70;;;;;;5055505;28;20025;-71
2022/03/25 12:29:51;;;;;;;29.33;18.00;;;22.50;47.30;;;;;;5055011;28;20036;-71
2022/03/25 12:32:18;;;;;;;26.67;17.67;;;22.50;44.80;;;;;;5054997;28;20029;-72
2022/03/25 12:35:00;;;;;;;27.27;17.95;;;22.60;46.40;;;;;;5054982;28;20029;-73
2022/03/25 12:37:35;;;;;;;30.13;18.95;;;22.60;46.20;;;;;;5054907;28;20066;-71
2022/03/25 12:40:15;;;;;;;28.75;17.75;;;22.30;45.30;;;;;;5055156;28;20028;-71
2022/03/25 12:42:42;;;;;;;30.05;17.83;;;22.50;46.10;;;;;;5055417;28;20017;-72
2022/03/25 12:45:09;;;;;;;29.40;18.05;;;22.50;46.90;;;;;;5055006;28;20114;-73
2022/03/25 12:47:36;;;;;;;29.38;17.80;;;22.30;46.00;;;;;;5055167;28;20078;-73
2022/03/25 12:50:04;;;;;;;27.90;17.98;;;22.10;45.90;;;;;;5055050;28;20040;-74
2022/03/25 12:52:30;;;;;;;27.40;16.92;;;22.00;45.60;;;;;;5054845;28;20031;-73
2022/03/25 12:55:06;;;;;;;29.02;18.02;;;22.10;45.90;;;;;;5054518;28;20470;-72
2022/03/25 12:57:34;;;;;;;28.50;17.50;;;22.00;44.30;;;;;;5054533;28;20048;-74
2022/03/25 13:00:00;;;;;;;24.13;16.52;;;22.00;44.60;;;;;;5054392;28;20039;-71
2022/03/25 13:02:48;;;;;;;25.20;16.92;;;22.00;44.90;;;;;;5054395;28;20056;-70
2022/03/25 13:05:18;;;;;;;29.10;16.80;;;22.10;44.90;;;;;;5054523;28;20072;-70
2022/03/25 13:07:43;;;;;;;;;;;22.30;46.10;;;;;;5036780;28;20033;-71
2022/03/25 13:10:10;;;;;;;26.33;17.35;;;22.40;44.00;;;;;;5054522;28;19911;-74
2022/03/25 13:12:52;;;;;;;23.95;16.35;;;22.40;45.10;;;;;;5054172;28;20025;-75
2022/03/25 13:15:25;;;;;;;28.48;16.48;;;22.50;44.30;;;;;;5054452;28;20431;-71
2022/03/25 13:17:52;;;;;;;27.60;17.60;;;22.50;44.30;;;;;;5035929;28;20128;-74
2022/03/25 13:20:36;;;;;;;28.13;18.20;;;22.30;44.40;;;;;;5054019;28;20028;-74
2022/03/25 13:23:10;;;;;;;27.50;17.00;;;22.30;44.40;;;;;;5054599;28;20184;-71
2022/03/25 13:25:42;;;;;;;25.75;17.42;;;22.40;45.60;;;;;;5054211;28;20478;-71
2022/03/25 13:28:16;;;;;;;27.70;18.00;;;22.30;45.30;;;;;;5035908;28;20033;-73
2022/03/25 13:30:48;;;;;;;33.08;18.52;;;22.00;45.30;;;;;;5054438;28;20473;-74
2022/03/25 13:33:18;;;;;;;27.88;16.67;;;22.10;45.60;;;;;;5053837;28;20028;-73
2022/03/25 13:35:48;;;;;;;29.80;18.40;;;22.00;45.40;;;;;;5054030;28;20021;-71
2022/03/25 13:38:17;;;;;;;;;;;22.20;45.80;;;;;;5054141;28;20503;-74
2022/03/25 13:40:51;;;;;;;31.98;19.00;;;22.40;46.50;;;;;;5053698;28;19908;-74
2022/03/25 13:43:40;;;;;;;30.80;20.30;;;22.30;45.40;;;;;;5054010;28;20505;-74
2022/03/25 13:46:10;;;;;;;32.97;19.23;;;22.10;45.70;;;;;;5053440;28;20086;-75
2022/03/25 13:48:40;;;;;;;39.20;21.13;;;21.90;46.00;;;;;;5053470;28;20017;-74